sensor_id;sensor_type;location;lat;lon;timestamp;P1;durP1;ratioP1;P2;durP2;ratioP2
29352;SDS011;16344;50.364;8.944;2023-02-28T00:00:16;12.13;;;4.68;;
29352;SDS011;16344;50.364;8.944;2023-02-28T00:02:42;11.10;;;4.80;;
29352;SDS011;16344;50.364;8.944;2023-02-28T00:05:10;9.82;;;5.43;;
29352;SDS011;16344;50.364;8.944;2023-02-28T00:07:37;10.82;;;4.55;;
29352;SDS011;16344;50.364;8.944;2023-02-28T00:10:03;9.55;;;4.25;;
29352;SDS011;16344;50.364;8.944;2023-02-28T00:12:31;6.97;;;4.32;;
29352;SDS011;16344;50.364;8.944;2023-02-28T00:14:57;11.02;;;4.60;;
29352;SDS011;16344;50.364;8.944;2023-02-28T00:17:22;11.13;;;4.50;;
29352;SDS011;16344;50.364;8.944;2023-02-28T00:19:48;12.68;;;4.80;;
29352;SDS011;16344;50.364;8.944;2023-02-28T00:22:15;9.95;;;5.07;;
29352;SDS011;16344;50.364;8.944;2023-02-28T00:24:41;12.52;;;4.53;;
29352;SDS011;16344;50.364;8.944;2023-02-28T00:27:07;11.90;;;4.47;;
29352;SDS011;16344;50.364;8.944;2023-02-28T00:29:33;7.97;;;4.55;;
29352;SDS011;16344;50.364;8.944;2023-02-28T00:31:58;11.27;;;4.18;;
29352;SDS011;16344;50.364;8.944;2023-02-28T00:34:24;9.48;;;4.50;;
29352;SDS011;16344;50.364;8.944;2023-02-28T00:36:49;12.02;;;4.43;;
29352;SDS011;16344;50.364;8.944;2023-02-28T00:39:15;6.47;;;3.90;;
29352;SDS011;16344;50.364;8.944;2023-02-28T00:41:41;8.52;;;4.22;;
29352;SDS011;16344;50.364;8.944;2023-02-28T00:44:06;7.13;;;4.60;;
29352;SDS011;16344;50.364;8.944;2023-02-28T00:46:32;12.90;;;4.40;;
29352;SDS011;16344;50.364;8.944;2023-02-28T00:48:57;11.45;;;4.05;;
29352;SDS011;16344;50.364;8.944;2023-02-28T00:51:23;8.25;;;4.13;;
29352;SDS011;16344;50.364;8.944;2023-02-28T00:53:48;16.73;;;4.43;;
29352;SDS011;16344;50.364;8.944;2023-02-28T00:56:14;9.85;;;4.85;;
29352;SDS011;16344;50.364;8.944;2023-02-28T00:58:39;9.60;;;4.35;;
29352;SDS011;16344;50.364;8.944;2023-02-28T01:01:05;12.10;;;4.35;;
29352;SDS011;16344;50.364;8.944;2023-02-28T01:03:31;9.32;;;4.70;;
29352;SDS011;16344;50.364;8.944;2023-02-28T01:05:56;9.13;;;4.70;;
29352;SDS011;16344;50.364;8.944;2023-02-28T01:08:22;7.32;;;4.25;;
29352;SDS011;16344;50.364;8.944;2023-02-28T01:10:48;8.70;;;4.72;;
29352;SDS011;16344;50.364;8.944;2023-02-28T01:13:14;9.27;;;4.68;;
29352;SDS011;16344;50.364;8.944;2023-02-28T01:15:41;8.30;;;4.15;;
29352;SDS011;16344;50.364;8.944;2023-02-28T01:18:13;8.05;;;4.53;;
29352;SDS011;16344;50.364;8.944;2023-02-28T01:20:39;9.52;;;4.80;;
29352;SDS011;16344;50.364;8.944;2023-02-28T01:23:04;8.88;;;4.20;;
29352;SDS011;16344;50.364;8.944;2023-02-28T01:25:30;7.03;;;4.18;;
29352;SDS011;16344;50.364;8.944;2023-02-28T01:27:55;8.02;;;3.78;;
29352;SDS011;16344;50.364;8.944;2023-02-28T01:30:21;8.13;;;4.03;;
29352;SDS011;16344;50.364;8.944;2023-02-28T01:32:46;6.75;;;3.90;;
29352;SDS011;16344;50.364;8.944;2023-02-28T01:35:12;7.60;;;3.88;;
29352;SDS011;16344;50.364;8.944;2023-02-28T01:37:37;8.82;;;4.28;;
29352;SDS011;16344;50.364;8.944;2023-02-28T01:40:03;6.22;;;3.75;;
29352;SDS011;16344;50.364;8.944;2023-02-28T01:42:29;6.13;;;3.85;;
29352;SDS011;16344;50.364;8.944;2023-02-28T01:44:57;4.78;;;3.45;;
29352;SDS011;16344;50.364;8.944;2023-02-28T01:47:39;7.57;;;4.03;;
29352;SDS011;16344;50.364;8.944;2023-02-28T01:50:09;7.13;;;3.70;;
29352;SDS011;16344;50.364;8.944;2023-02-28T01:52:39;6.13;;;4.00;;
29352;SDS011;16344;50.364;8.944;2023-02-28T01:55:07;5.78;;;3.70;;
29352;SDS011;16344;50.364;8.944;2023-02-28T01:57:35;6.65;;;3.92;;
29352;SDS011;16344;50.364;8.944;2023-02-28T02:00:10;7.57;;;3.97;;
29352;SDS011;16344;50.364;8.944;2023-02-28T02:02:40;6.93;;;3.83;;
29352;SDS011;16344;50.364;8.944;2023-02-28T02:05:18;6.72;;;3.85;;
29352;SDS011;16344;50.364;8.944;2023-02-28T02:07:52;7.60;;;3.72;;
29352;SDS011;16344;50.364;8.944;2023-02-28T02:10:21;10.40;;;3.65;;
29352;SDS011;16344;50.364;8.944;2023-02-28T02:15:48;6.65;;;3.90;;
29352;SDS011;16344;50.364;8.944;2023-02-28T02:29:56;9.20;;;4.07;;
29352;SDS011;16344;50.364;8.944;2023-02-28T02:32:44;9.05;;;3.70;;
29352;SDS011;16344;50.364;8.944;2023-02-28T02:41:04;7.57;;;4.40;;
29352;SDS011;16344;50.364;8.944;2023-02-28T02:43:54;8.52;;;4.45;;
29352;SDS011;16344;50.364;8.944;2023-02-28T02:46:28;11.85;;;3.95;;
29352;SDS011;16344;50.364;8.944;2023-02-28T02:48:57;6.97;;;4.38;;
29352;SDS011;16344;50.364;8.944;2023-02-28T02:51:26;9.05;;;4.68;;
29352;SDS011;16344;50.364;8.944;2023-02-28T02:54:04;8.50;;;4.30;;
29352;SDS011;16344;50.364;8.944;2023-02-28T02:56:33;11.80;;;4.57;;
29352;SDS011;16344;50.364;8.944;2023-02-28T02:59:02;8.73;;;4.60;;
29352;SDS011;16344;50.364;8.944;2023-02-28T03:01:30;12.13;;;4.15;;
29352;SDS011;16344;50.364;8.944;2023-02-28T03:03:57;8.45;;;4.43;;
29352;SDS011;16344;50.364;8.944;2023-02-28T03:06:26;9.10;;;3.53;;
29352;SDS011;16344;50.364;8.944;2023-02-28T03:08:52;6.63;;;4.05;;
29352;SDS011;16344;50.364;8.944;2023-02-28T03:11:18;11.15;;;4.47;;
29352;SDS011;16344;50.364;8.944;2023-02-28T03:13:51;9.18;;;3.47;;
29352;SDS011;16344;50.364;8.944;2023-02-28T03:16:48;6.80;;;3.78;;
29352;SDS011;16344;50.364;8.944;2023-02-28T03:27:12;8.68;;;4.63;;
29352;SDS011;16344;50.364;8.944;2023-02-28T03:29:58;8.38;;;3.88;;
29352;SDS011;16344;50.364;8.944;2023-02-28T03:32:48;6.65;;;3.40;;
29352;SDS011;16344;50.364;8.944;2023-02-28T03:35:26;6.15;;;3.83;;
29352;SDS011;16344;50.364;8.944;2023-02-28T03:38:13;11.38;;;4.78;;
29352;SDS011;16344;50.364;8.944;2023-02-28T03:40:48;8.30;;;3.67;;
29352;SDS011;16344;50.364;8.944;2023-02-28T03:43:18;7.65;;;3.85;;
29352;SDS011;16344;50.364;8.944;2023-02-28T03:45:50;11.02;;;3.95;;
29352;SDS011;16344;50.364;8.944;2023-02-28T03:48:28;7.63;;;3.65;;
29352;SDS011;16344;50.364;8.944;2023-02-28T03:51:02;6.13;;;3.55;;
29352;SDS011;16344;50.364;8.944;2023-02-28T03:53:32;10.02;;;4.20;;
29352;SDS011;16344;50.364;8.944;2023-02-28T03:58:47;10.98;;;3.92;;
29352;SDS011;16344;50.364;8.944;2023-02-28T04:01:33;7.40;;;3.30;;
29352;SDS011;16344;50.364;8.944;2023-02-28T04:03:59;6.53;;;4.18;;
29352;SDS011;16344;50.364;8.944;2023-02-28T04:06:25;7.63;;;3.38;;
29352;SDS011;16344;50.364;8.944;2023-02-28T04:08:51;9.40;;;3.80;;
29352;SDS011;16344;50.364;8.944;2023-02-28T04:13:47;8.73;;;3.22;;
29352;SDS011;16344;50.364;8.944;2023-02-28T04:16:13;8.95;;;3.17;;
29352;SDS011;16344;50.364;8.944;2023-02-28T04:18:39;5.05;;;2.70;;
29352;SDS011;16344;50.364;8.944;2023-02-28T04:21:05;7.07;;;3.22;;
29352;SDS011;16344;50.364;8.944;2023-02-28T04:23:31;8.05;;;3.38;;
29352;SDS011;16344;50.364;8.944;2023-02-28T04:25:57;9.63;;;3.90;;
29352;SDS011;16344;50.364;8.944;2023-02-28T04:28:23;9.05;;;4.03;;
29352;SDS011;16344;50.364;8.944;2023-02-28T04:30:54;6.40;;;2.95;;
29352;SDS011;16344;50.364;8.944;2023-02-28T04:33:20;7.60;;;3.60;;
29352;SDS011;16344;50.364;8.944;2023-02-28T04:35:46;16.40;;;3.53;;
29352;SDS011;16344;50.364;8.944;2023-02-28T04:38:11;5.68;;;3.30;;
29352;SDS011;16344;50.364;8.944;2023-02-28T04:40:37;7.03;;;3.30;;
29352;SDS011;16344;50.364;8.944;2023-02-28T04:43:02;5.15;;;3.22;;
29352;SDS011;16344;50.364;8.944;2023-02-28T04:45:28;17.02;;;3.47;;
29352;SDS011;16344;50.364;8.944;2023-02-28T04:47:57;10.20;;;3.35;;
29352;SDS011;16344;50.364;8.944;2023-02-28T04:50:22;7.82;;;3.60;;
29352;SDS011;16344;50.364;8.944;2023-02-28T04:52:48;6.97;;;3.58;;
29352;SDS011;16344;50.364;8.944;2023-02-28T04:55:14;7.38;;;3.15;;
29352;SDS011;16344;50.364;8.944;2023-02-28T04:57:39;10.18;;;3.65;;
29352;SDS011;16344;50.364;8.944;2023-02-28T05:00:07;8.25;;;3.55;;
29352;SDS011;16344;50.364;8.944;2023-02-28T05:02:36;5.50;;;3.22;;
29352;SDS011;16344;50.364;8.944;2023-02-28T05:05:02;6.03;;;3.30;;
29352;SDS011;16344;50.364;8.944;2023-02-28T05:07:28;7.63;;;3.72;;
29352;SDS011;16344;50.364;8.944;2023-02-28T05:09:54;7.38;;;3.58;;
29352;SDS011;16344;50.364;8.944;2023-02-28T05:12:19;5.40;;;2.97;;
29352;SDS011;16344;50.364;8.944;2023-02-28T05:14:45;6.10;;;3.50;;
29352;SDS011;16344;50.364;8.944;2023-02-28T05:17:10;6.43;;;3.67;;
29352;SDS011;16344;50.364;8.944;2023-02-28T05:19:36;8.02;;;3.78;;
29352;SDS011;16344;50.364;8.944;2023-02-28T05:22:01;10.18;;;3.63;;
29352;SDS011;16344;50.364;8.944;2023-02-28T05:24:27;6.22;;;3.72;;
29352;SDS011;16344;50.364;8.944;2023-02-28T05:26:53;17.33;;;4.15;;
29352;SDS011;16344;50.364;8.944;2023-02-28T05:29:19;9.77;;;4.35;;
29352;SDS011;16344;50.364;8.944;2023-02-28T05:31:44;6.97;;;3.75;;
29352;SDS011;16344;50.364;8.944;2023-02-28T05:34:10;7.28;;;3.40;;
29352;SDS011;16344;50.364;8.944;2023-02-28T05:36:37;8.63;;;3.40;;
29352;SDS011;16344;50.364;8.944;2023-02-28T05:39:04;10.75;;;3.50;;
29352;SDS011;16344;50.364;8.944;2023-02-28T05:41:32;7.95;;;4.22;;
29352;SDS011;16344;50.364;8.944;2023-02-28T05:43:57;10.25;;;3.85;;
29352;SDS011;16344;50.364;8.944;2023-02-28T05:46:24;9.77;;;3.67;;
29352;SDS011;16344;50.364;8.944;2023-02-28T05:48:50;8.13;;;3.85;;
29352;SDS011;16344;50.364;8.944;2023-02-28T05:51:15;11.48;;;4.32;;
29352;SDS011;16344;50.364;8.944;2023-02-28T05:53:41;7.97;;;4.25;;
29352;SDS011;16344;50.364;8.944;2023-02-28T05:56:07;9.07;;;5.22;;
29352;SDS011;16344;50.364;8.944;2023-02-28T05:58:32;10.88;;;5.07;;
29352;SDS011;16344;50.364;8.944;2023-02-28T06:00:59;12.02;;;4.88;;
29352;SDS011;16344;50.364;8.944;2023-02-28T06:03:26;6.93;;;4.25;;
29352;SDS011;16344;50.364;8.944;2023-02-28T06:05:52;15.68;;;5.38;;
29352;SDS011;16344;50.364;8.944;2023-02-28T06:08:18;8.23;;;4.88;;
29352;SDS011;16344;50.364;8.944;2023-02-28T06:10:43;8.60;;;5.18;;
29352;SDS011;16344;50.364;8.944;2023-02-28T06:13:10;12.88;;;5.15;;
29352;SDS011;16344;50.364;8.944;2023-02-28T06:15:36;8.43;;;4.70;;
29352;SDS011;16344;50.364;8.944;2023-02-28T06:18:02;7.43;;;4.53;;
29352;SDS011;16344;50.364;8.944;2023-02-28T06:20:27;10.23;;;4.30;;
29352;SDS011;16344;50.364;8.944;2023-02-28T06:22:54;12.57;;;4.63;;
29352;SDS011;16344;50.364;8.944;2023-02-28T06:25:23;9.88;;;4.90;;
29352;SDS011;16344;50.364;8.944;2023-02-28T06:27:49;7.38;;;4.15;;
29352;SDS011;16344;50.364;8.944;2023-02-28T06:30:14;8.60;;;4.45;;
29352;SDS011;16344;50.364;8.944;2023-02-28T06:32:40;11.07;;;4.93;;
29352;SDS011;16344;50.364;8.944;2023-02-28T06:35:06;11.38;;;5.45;;
29352;SDS011;16344;50.364;8.944;2023-02-28T06:37:32;11.23;;;3.28;;
29352;SDS011;16344;50.364;8.944;2023-02-28T06:39:57;12.48;;;5.15;;
29352;SDS011;16344;50.364;8.944;2023-02-28T06:42:24;9.10;;;4.38;;
29352;SDS011;16344;50.364;8.944;2023-02-28T06:44:53;6.72;;;3.70;;
29352;SDS011;16344;50.364;8.944;2023-02-28T06:47:20;8.90;;;4.53;;
29352;SDS011;16344;50.364;8.944;2023-02-28T06:49:46;9.35;;;4.95;;
29352;SDS011;16344;50.364;8.944;2023-02-28T06:52:11;10.63;;;4.43;;
29352;SDS011;16344;50.364;8.944;2023-02-28T06:54:37;10.02;;;4.57;;
29352;SDS011;16344;50.364;8.944;2023-02-28T06:57:02;7.00;;;4.35;;
29352;SDS011;16344;50.364;8.944;2023-02-28T06:59:28;7.60;;;4.20;;
29352;SDS011;16344;50.364;8.944;2023-02-28T07:01:53;11.48;;;4.80;;
29352;SDS011;16344;50.364;8.944;2023-02-28T07:04:20;8.15;;;4.80;;
29352;SDS011;16344;50.364;8.944;2023-02-28T07:06:46;7.03;;;4.40;;
29352;SDS011;16344;50.364;8.944;2023-02-28T07:09:11;8.48;;;4.65;;
29352;SDS011;16344;50.364;8.944;2023-02-28T07:11:38;8.38;;;4.43;;
29352;SDS011;16344;50.364;8.944;2023-02-28T07:14:03;10.57;;;5.28;;
29352;SDS011;16344;50.364;8.944;2023-02-28T07:16:29;11.48;;;4.63;;
29352;SDS011;16344;50.364;8.944;2023-02-28T07:18:54;10.98;;;4.75;;
29352;SDS011;16344;50.364;8.944;2023-02-28T07:21:20;11.23;;;5.13;;
29352;SDS011;16344;50.364;8.944;2023-02-28T07:23:46;13.77;;;6.13;;
29352;SDS011;16344;50.364;8.944;2023-02-28T07:26:12;12.30;;;5.75;;
29352;SDS011;16344;50.364;8.944;2023-02-28T07:28:44;14.00;;;6.50;;
29352;SDS011;16344;50.364;8.944;2023-02-28T07:31:10;10.02;;;4.97;;
29352;SDS011;16344;50.364;8.944;2023-02-28T07:33:38;8.43;;;4.88;;
29352;SDS011;16344;50.364;8.944;2023-02-28T07:36:05;10.27;;;5.20;;
29352;SDS011;16344;50.364;8.944;2023-02-28T07:38:36;9.20;;;4.05;;
29352;SDS011;16344;50.364;8.944;2023-02-28T07:41:02;9.05;;;4.80;;
29352;SDS011;16344;50.364;8.944;2023-02-28T07:43:32;9.85;;;4.82;;
29352;SDS011;16344;50.364;8.944;2023-02-28T07:46:01;8.68;;;4.65;;
29352;SDS011;16344;50.364;8.944;2023-02-28T07:48:32;7.40;;;4.50;;
29352;SDS011;16344;50.364;8.944;2023-02-28T07:50:58;9.98;;;4.57;;
29352;SDS011;16344;50.364;8.944;2023-02-28T07:53:24;13.25;;;5.20;;
29352;SDS011;16344;50.364;8.944;2023-02-28T07:55:50;15.70;;;5.18;;
29352;SDS011;16344;50.364;8.944;2023-02-28T07:58:15;8.23;;;4.20;;
29352;SDS011;16344;50.364;8.944;2023-02-28T08:00:41;15.68;;;5.45;;
29352;SDS011;16344;50.364;8.944;2023-02-28T08:03:08;11.45;;;4.47;;
29352;SDS011;16344;50.364;8.944;2023-02-28T08:05:40;11.13;;;5.07;;
29352;SDS011;16344;50.364;8.944;2023-02-28T08:08:06;7.88;;;4.05;;
29352;SDS011;16344;50.364;8.944;2023-02-28T08:10:32;7.18;;;4.40;;
29352;SDS011;16344;50.364;8.944;2023-02-28T08:12:58;9.02;;;3.97;;
29352;SDS011;16344;50.364;8.944;2023-02-28T08:15:23;8.85;;;4.35;;
29352;SDS011;16344;50.364;8.944;2023-02-28T08:17:49;5.45;;;2.95;;
29352;SDS011;16344;50.364;8.944;2023-02-28T08:20:14;7.90;;;3.70;;
29352;SDS011;16344;50.364;8.944;2023-02-28T08:22:40;6.88;;;3.50;;
29352;SDS011;16344;50.364;8.944;2023-02-28T08:25:06;9.50;;;4.25;;
29352;SDS011;16344;50.364;8.944;2023-02-28T08:27:32;14.43;;;4.25;;
29352;SDS011;16344;50.364;8.944;2023-02-28T08:29:58;12.50;;;5.35;;
29352;SDS011;16344;50.364;8.944;2023-02-28T08:32:23;8.57;;;4.40;;
29352;SDS011;16344;50.364;8.944;2023-02-28T08:34:49;9.35;;;4.20;;
29352;SDS011;16344;50.364;8.944;2023-02-28T08:37:15;10.07;;;3.75;;
29352;SDS011;16344;50.364;8.944;2023-02-28T08:39:40;9.05;;;4.78;;
29352;SDS011;16344;50.364;8.944;2023-02-28T08:42:06;8.43;;;4.20;;
29352;SDS011;16344;50.364;8.944;2023-02-28T08:44:31;8.32;;;3.70;;
29352;SDS011;16344;50.364;8.944;2023-02-28T08:46:57;15.25;;;4.32;;
29352;SDS011;16344;50.364;8.944;2023-02-28T08:49:22;9.23;;;3.63;;
29352;SDS011;16344;50.364;8.944;2023-02-28T08:51:48;9.20;;;3.47;;
29352;SDS011;16344;50.364;8.944;2023-02-28T08:54:13;10.70;;;4.07;;
29352;SDS011;16344;50.364;8.944;2023-02-28T08:56:44;10.73;;;3.55;;
29352;SDS011;16344;50.364;8.944;2023-02-28T08:59:10;11.50;;;4.25;;
29352;SDS011;16344;50.364;8.944;2023-02-28T09:01:36;7.63;;;4.65;;
29352;SDS011;16344;50.364;8.944;2023-02-28T09:04:01;17.55;;;3.83;;
29352;SDS011;16344;50.364;8.944;2023-02-28T09:06:27;10.82;;;5.13;;
29352;SDS011;16344;50.364;8.944;2023-02-28T09:08:53;11.00;;;4.22;;
29352;SDS011;16344;50.364;8.944;2023-02-28T09:11:23;13.23;;;4.72;;
29352;SDS011;16344;50.364;8.944;2023-02-28T09:13:49;17.67;;;4.38;;
29352;SDS011;16344;50.364;8.944;2023-02-28T09:16:15;10.90;;;4.38;;
29352;SDS011;16344;50.364;8.944;2023-02-28T09:18:41;20.63;;;8.68;;
29352;SDS011;16344;50.364;8.944;2023-02-28T09:21:08;14.98;;;6.43;;
29352;SDS011;16344;50.364;8.944;2023-02-28T09:23:38;11.77;;;4.25;;
29352;SDS011;16344;50.364;8.944;2023-02-28T09:26:04;12.02;;;5.28;;
29352;SDS011;16344;50.364;8.944;2023-02-28T09:28:30;12.50;;;6.45;;
29352;SDS011;16344;50.364;8.944;2023-02-28T09:30:55;18.77;;;7.35;;
29352;SDS011;16344;50.364;8.944;2023-02-28T09:33:23;17.98;;;4.53;;
29352;SDS011;16344;50.364;8.944;2023-02-28T09:35:50;10.50;;;4.50;;
29352;SDS011;16344;50.364;8.944;2023-02-28T09:38:16;8.77;;;4.43;;
29352;SDS011;16344;50.364;8.944;2023-02-28T09:40:52;15.10;;;4.53;;
29352;SDS011;16344;50.364;8.944;2023-02-28T09:43:20;11.15;;;4.57;;
29352;SDS011;16344;50.364;8.944;2023-02-28T09:45:51;12.55;;;6.00;;
29352;SDS011;16344;50.364;8.944;2023-02-28T09:48:24;10.68;;;4.93;;
29352;SDS011;16344;50.364;8.944;2023-02-28T09:54:01;10.48;;;4.30;;
29352;SDS011;16344;50.364;8.944;2023-02-28T09:56:31;10.30;;;5.43;;
29352;SDS011;16344;50.364;8.944;2023-02-28T09:59:04;13.48;;;5.80;;
29352;SDS011;16344;50.364;8.944;2023-02-28T10:01:45;9.55;;;4.78;;
29352;SDS011;16344;50.364;8.944;2023-02-28T10:04:28;8.13;;;4.50;;
29352;SDS011;16344;50.364;8.944;2023-02-28T10:10:43;11.38;;;4.30;;
29352;SDS011;16344;50.364;8.944;2023-02-28T10:13:46;9.02;;;4.80;;
29352;SDS011;16344;50.364;8.944;2023-02-28T10:21:39;8.35;;;4.63;;
29352;SDS011;16344;50.364;8.944;2023-02-28T10:24:19;8.23;;;5.05;;
29352;SDS011;16344;50.364;8.944;2023-02-28T10:27:16;7.43;;;4.38;;
29352;SDS011;16344;50.364;8.944;2023-02-28T10:29:45;12.48;;;4.95;;
29352;SDS011;16344;50.364;8.944;2023-02-28T10:32:14;10.48;;;4.22;;
29352;SDS011;16344;50.364;8.944;2023-02-28T10:34:44;13.75;;;4.45;;
29352;SDS011;16344;50.364;8.944;2023-02-28T10:37:15;9.25;;;4.50;;
29352;SDS011;16344;50.364;8.944;2023-02-28T10:39:44;10.80;;;4.70;;
29352;SDS011;16344;50.364;8.944;2023-02-28T10:45:04;15.30;;;4.55;;
29352;SDS011;16344;50.364;8.944;2023-02-28T10:47:55;15.63;;;5.70;;
29352;SDS011;16344;50.364;8.944;2023-02-28T10:55:56;15.02;;;6.35;;
29352;SDS011;16344;50.364;8.944;2023-02-28T10:58:24;10.27;;;5.53;;
29352;SDS011;16344;50.364;8.944;2023-02-28T11:00:51;11.90;;;5.57;;
29352;SDS011;16344;50.364;8.944;2023-02-28T11:03:22;11.15;;;5.38;;
29352;SDS011;16344;50.364;8.944;2023-02-28T11:05:50;9.13;;;5.10;;
29352;SDS011;16344;50.364;8.944;2023-02-28T11:08:16;9.70;;;5.35;;
29352;SDS011;16344;50.364;8.944;2023-02-28T11:10:56;30.15;;;8.63;;
29352;SDS011;16344;50.364;8.944;2023-02-28T11:13:41;14.15;;;6.45;;
29352;SDS011;16344;50.364;8.944;2023-02-28T11:16:09;22.67;;;8.25;;
29352;SDS011;16344;50.364;8.944;2023-02-28T11:18:47;11.68;;;6.07;;
29352;SDS011;16344;50.364;8.944;2023-02-28T11:21:19;22.30;;;7.28;;
29352;SDS011;16344;50.364;8.944;2023-02-28T11:23:49;14.43;;;7.40;;
29352;SDS011;16344;50.364;8.944;2023-02-28T11:26:17;23.08;;;6.30;;
29352;SDS011;16344;50.364;8.944;2023-02-28T11:29:12;12.73;;;5.90;;
29352;SDS011;16344;50.364;8.944;2023-02-28T11:32:02;13.00;;;6.75;;
29352;SDS011;16344;50.364;8.944;2023-02-28T11:34:28;10.05;;;5.50;;
29352;SDS011;16344;50.364;8.944;2023-02-28T11:36:54;14.45;;;6.15;;
29352;SDS011;16344;50.364;8.944;2023-02-28T11:39:22;10.57;;;5.93;;
29352;SDS011;16344;50.364;8.944;2023-02-28T11:47:35;11.47;;;5.90;;
29352;SDS011;16344;50.364;8.944;2023-02-28T11:53:01;13.75;;;5.28;;
29352;SDS011;16344;50.364;8.944;2023-02-28T11:55:36;13.82;;;6.38;;
29352;SDS011;16344;50.364;8.944;2023-02-28T12:01:09;18.23;;;7.28;;
29352;SDS011;16344;50.364;8.944;2023-02-28T12:03:55;13.13;;;6.13;;
29352;SDS011;16344;50.364;8.944;2023-02-28T12:06:45;9.27;;;5.63;;
29352;SDS011;16344;50.364;8.944;2023-02-28T12:09:38;17.27;;;7.82;;
29352;SDS011;16344;50.364;8.944;2023-02-28T12:15:13;10.55;;;5.63;;
29352;SDS011;16344;50.364;8.944;2023-02-28T12:20:46;10.73;;;6.00;;
29352;SDS011;16344;50.364;8.944;2023-02-28T12:23:21;12.48;;;5.70;;
29352;SDS011;16344;50.364;8.944;2023-02-28T12:28:38;20.40;;;5.47;;
29352;SDS011;16344;50.364;8.944;2023-02-28T12:31:19;12.32;;;6.55;;
29352;SDS011;16344;50.364;8.944;2023-02-28T12:33:56;12.30;;;4.72;;
29352;SDS011;16344;50.364;8.944;2023-02-28T12:36:26;11.68;;;5.03;;
29352;SDS011;16344;50.364;8.944;2023-02-28T12:41:41;11.30;;;5.55;;
29352;SDS011;16344;50.364;8.944;2023-02-28T12:44:43;12.35;;;5.43;;
29352;SDS011;16344;50.364;8.944;2023-02-28T12:47:14;11.07;;;5.43;;
29352;SDS011;16344;50.364;8.944;2023-02-28T12:49:55;17.83;;;5.82;;
29352;SDS011;16344;50.364;8.944;2023-02-28T12:52:56;14.23;;;5.35;;
29352;SDS011;16344;50.364;8.944;2023-02-28T12:55:56;13.45;;;6.43;;
29352;SDS011;16344;50.364;8.944;2023-02-28T12:58:44;13.00;;;6.45;;
29352;SDS011;16344;50.364;8.944;2023-02-28T13:04:18;13.07;;;5.88;;
29352;SDS011;16344;50.364;8.944;2023-02-28T13:07:13;17.08;;;6.45;;
29352;SDS011;16344;50.364;8.944;2023-02-28T13:10:00;13.52;;;5.43;;
29352;SDS011;16344;50.364;8.944;2023-02-28T13:12:27;16.92;;;6.88;;
29352;SDS011;16344;50.364;8.944;2023-02-28T13:15:16;9.95;;;5.78;;
29352;SDS011;16344;50.364;8.944;2023-02-28T13:17:48;12.75;;;5.43;;
29352;SDS011;16344;50.364;8.944;2023-02-28T13:20:18;12.73;;;6.28;;
29352;SDS011;16344;50.364;8.944;2023-02-28T13:22:52;11.73;;;6.00;;
29352;SDS011;16344;50.364;8.944;2023-02-28T13:27:48;18.35;;;6.25;;
29352;SDS011;16344;50.364;8.944;2023-02-28T13:35:44;49.20;;;14.40;;
29352;SDS011;16344;50.364;8.944;2023-02-28T13:38:21;40.72;;;11.18;;
29352;SDS011;16344;50.364;8.944;2023-02-28T13:40:49;50.90;;;13.20;;
29352;SDS011;16344;50.364;8.944;2023-02-28T13:43:16;16.38;;;7.28;;
29352;SDS011;16344;50.364;8.944;2023-02-28T13:46:05;15.63;;;6.35;;
29352;SDS011;16344;50.364;8.944;2023-02-28T13:48:35;13.27;;;5.90;;
29352;SDS011;16344;50.364;8.944;2023-02-28T13:51:17;12.80;;;6.32;;
29352;SDS011;16344;50.364;8.944;2023-02-28T13:54:11;12.52;;;6.43;;
29352;SDS011;16344;50.364;8.944;2023-02-28T14:05:29;12.63;;;6.53;;
29352;SDS011;16344;50.364;8.944;2023-02-28T14:07:58;10.63;;;6.13;;
29352;SDS011;16344;50.364;8.944;2023-02-28T14:10:31;17.55;;;5.82;;
29352;SDS011;16344;50.364;8.944;2023-02-28T14:16:05;20.58;;;6.00;;
29352;SDS011;16344;50.364;8.944;2023-02-28T14:18:34;12.15;;;6.55;;
29352;SDS011;16344;50.364;8.944;2023-02-28T14:21:04;16.85;;;7.82;;
29352;SDS011;16344;50.364;8.944;2023-02-28T14:23:36;21.70;;;6.65;;
29352;SDS011;16344;50.364;8.944;2023-02-28T14:29:36;17.40;;;6.68;;
29352;SDS011;16344;50.364;8.944;2023-02-28T14:35:03;13.85;;;6.45;;
29352;SDS011;16344;50.364;8.944;2023-02-28T14:37:33;12.23;;;6.32;;
29352;SDS011;16344;50.364;8.944;2023-02-28T14:40:02;16.85;;;7.32;;
29352;SDS011;16344;50.364;8.944;2023-02-28T14:44:58;15.50;;;6.60;;
29352;SDS011;16344;50.364;8.944;2023-02-28T14:47:30;12.65;;;6.43;;
29352;SDS011;16344;50.364;8.944;2023-02-28T14:49:57;11.25;;;6.22;;
29352;SDS011;16344;50.364;8.944;2023-02-28T14:52:28;11.27;;;6.35;;
29352;SDS011;16344;50.364;8.944;2023-02-28T14:55:00;12.18;;;6.68;;
29352;SDS011;16344;50.364;8.944;2023-02-28T14:57:33;19.08;;;7.13;;
29352;SDS011;16344;50.364;8.944;2023-02-28T15:00:09;13.32;;;6.47;;
29352;SDS011;16344;50.364;8.944;2023-02-28T15:02:45;12.27;;;6.65;;
29352;SDS011;16344;50.364;8.944;2023-02-28T15:07:41;24.58;;;6.18;;
29352;SDS011;16344;50.364;8.944;2023-02-28T15:10:18;21.02;;;6.43;;
29352;SDS011;16344;50.364;8.944;2023-02-28T15:15:26;18.42;;;6.95;;
29352;SDS011;16344;50.364;8.944;2023-02-28T15:18:00;13.82;;;6.82;;
29352;SDS011;16344;50.364;8.944;2023-02-28T15:20:27;12.75;;;6.20;;
29352;SDS011;16344;50.364;8.944;2023-02-28T15:22:53;10.45;;;6.75;;
29352;SDS011;16344;50.364;8.944;2023-02-28T15:25:21;17.92;;;6.85;;
29352;SDS011;16344;50.364;8.944;2023-02-28T15:27:52;17.13;;;6.90;;
29352;SDS011;16344;50.364;8.944;2023-02-28T15:30:21;12.77;;;6.95;;
29352;SDS011;16344;50.364;8.944;2023-02-28T15:33:04;28.38;;;9.45;;
29352;SDS011;16344;50.364;8.944;2023-02-28T15:35:33;26.65;;;11.90;;
29352;SDS011;16344;50.364;8.944;2023-02-28T15:38:00;21.92;;;10.25;;
29352;SDS011;16344;50.364;8.944;2023-02-28T15:40:43;19.55;;;9.00;;
29352;SDS011;16344;50.364;8.944;2023-02-28T15:45:48;24.00;;;9.00;;
29352;SDS011;16344;50.364;8.944;2023-02-28T15:48:17;29.75;;;10.68;;
29352;SDS011;16344;50.364;8.944;2023-02-28T15:50:43;25.20;;;10.65;;
29352;SDS011;16344;50.364;8.944;2023-02-28T15:53:16;43.72;;;12.60;;
29352;SDS011;16344;50.364;8.944;2023-02-28T15:55:44;63.40;;;20.35;;
29352;SDS011;16344;50.364;8.944;2023-02-28T15:58:11;71.05;;;22.02;;
29352;SDS011;16344;50.364;8.944;2023-02-28T16:00:38;16.80;;;7.70;;
29352;SDS011;16344;50.364;8.944;2023-02-28T16:03:23;16.02;;;8.07;;
29352;SDS011;16344;50.364;8.944;2023-02-28T16:08:46;29.35;;;8.48;;
29352;SDS011;16344;50.364;8.944;2023-02-28T16:11:13;16.65;;;9.32;;
29352;SDS011;16344;50.364;8.944;2023-02-28T16:13:39;17.73;;;7.75;;
29352;SDS011;16344;50.364;8.944;2023-02-28T16:16:05;29.48;;;6.95;;
29352;SDS011;16344;50.364;8.944;2023-02-28T16:18:30;22.88;;;6.43;;
29352;SDS011;16344;50.364;8.944;2023-02-28T16:20:56;13.60;;;6.25;;
29352;SDS011;16344;50.364;8.944;2023-02-28T16:23:21;10.10;;;5.25;;
29352;SDS011;16344;50.364;8.944;2023-02-28T16:25:47;13.73;;;6.75;;
29352;SDS011;16344;50.364;8.944;2023-02-28T16:28:19;16.73;;;7.32;;
29352;SDS011;16344;50.364;8.944;2023-02-28T16:30:53;18.27;;;8.23;;
29352;SDS011;16344;50.364;8.944;2023-02-28T16:33:18;16.85;;;7.22;;
29352;SDS011;16344;50.364;8.944;2023-02-28T16:35:44;25.98;;;7.25;;
29352;SDS011;16344;50.364;8.944;2023-02-28T16:38:09;14.63;;;6.72;;
29352;SDS011;16344;50.364;8.944;2023-02-28T16:40:35;11.77;;;6.68;;
29352;SDS011;16344;50.364;8.944;2023-02-28T16:43:03;10.60;;;5.60;;
29352;SDS011;16344;50.364;8.944;2023-02-28T16:45:31;12.02;;;6.03;;
29352;SDS011;16344;50.364;8.944;2023-02-28T16:47:57;21.58;;;6.60;;
29352;SDS011;16344;50.364;8.944;2023-02-28T16:50:23;11.75;;;6.15;;
29352;SDS011;16344;50.364;8.944;2023-02-28T16:52:54;14.32;;;6.80;;
29352;SDS011;16344;50.364;8.944;2023-02-28T16:55:21;13.65;;;5.80;;